METAR Data

Data at: 2147 UTC 26 Feb 2020

METAR for:KIJD (Willimantic/Windhan, CT, US)
Text:KIJD 262052Z AUTO 07005KT 10SM OVC024 10/04 A2993 RMK AO2 SLP134 T01000044 55017
Temperature: 10.0°C ( 50°F)
Dewpoint: 4.4°C ( 40°F) [RH = 68%]
Pressure (altimeter):29.93 inches Hg (1013.6 mb) [Sea level pressure: 1013.4 mb]
Winds:from the ENE (70 degrees) at 6 MPH (5 knots; 2.6 m/s)
Visibility:10 or more sm (16+ km)
Ceiling:2400 feet AGL
Clouds: overcast cloud deck at 2400 feet AGL
QC Flag:automated observation with no human augmentation